Terminal Aerodrome Forecast
Issued by NWS

Home | Current Version | Previous Version | Text Only | Print | Product List | Glossary On
Versions: 1 2 3 4 5 6 7 8 9 10 11 12 13 14
638
FTUS42 TJSJ 131844 AAA
TAFJMZ
TAF AMD
TJMZ 131844Z 1319/1418 29010KT P6SM VCSH SCT030 BKN040
     FM132200 06006KT P6SM FEW040
     FM141500 29006KT P6SM FEW025 SCT030 SCT040
      AMD NOT SKED=

USA.gov is the U.S. government's official web portal to all federal, state and local government web resources and services.